sensor_id;sensor_type;location;lat;lon;timestamp;P1;durP1;ratioP1;P2;durP2;ratioP2
773;SDS011;370;48.810;9.150;2023-01-29T00:01:17;1.15;;;0.88;;
773;SDS011;370;48.810;9.150;2023-01-29T00:03:43;1.30;;;1.25;;
773;SDS011;370;48.810;9.150;2023-01-29T00:06:10;2.03;;;1.40;;
773;SDS011;370;48.810;9.150;2023-01-29T00:08:37;1.45;;;1.38;;
773;SDS011;370;48.810;9.150;2023-01-29T00:11:04;2.60;;;1.45;;
773;SDS011;370;48.810;9.150;2023-01-29T00:13:33;6.85;;;2.10;;
773;SDS011;370;48.810;9.150;2023-01-29T00:16:00;4.25;;;3.05;;
773;SDS011;370;48.810;9.150;2023-01-29T00:18:29;4.88;;;1.70;;
773;SDS011;370;48.810;9.150;2023-01-29T00:20:56;3.28;;;1.80;;
773;SDS011;370;48.810;9.150;2023-01-29T00:23:23;2.40;;;2.20;;
773;SDS011;370;48.810;9.150;2023-01-29T00:25:49;3.25;;;1.80;;
773;SDS011;370;48.810;9.150;2023-01-29T00:28:16;2.20;;;1.92;;
773;SDS011;370;48.810;9.150;2023-01-29T00:30:43;1.83;;;1.13;;
773;SDS011;370;48.810;9.150;2023-01-29T00:33:10;2.25;;;1.63;;
773;SDS011;370;48.810;9.150;2023-01-29T00:35:39;3.75;;;2.08;;
773;SDS011;370;48.810;9.150;2023-01-29T00:38:06;1.35;;;1.17;;
773;SDS011;370;48.810;9.150;2023-01-29T00:40:35;6.05;;;2.28;;
773;SDS011;370;48.810;9.150;2023-01-29T00:43:17;3.40;;;1.40;;
773;SDS011;370;48.810;9.150;2023-01-29T00:46:02;0.80;;;0.73;;
773;SDS011;370;48.810;9.150;2023-01-29T00:48:30;1.23;;;1.13;;
773;SDS011;370;48.810;9.150;2023-01-29T00:50:58;4.00;;;1.60;;
773;SDS011;370;48.810;9.150;2023-01-29T00:53:25;1.60;;;1.45;;
773;SDS011;370;48.810;9.150;2023-01-29T00:55:52;3.17;;;1.55;;
773;SDS011;370;48.810;9.150;2023-01-29T00:58:19;3.90;;;1.55;;
773;SDS011;370;48.810;9.150;2023-01-29T01:00:58;1.15;;;0.80;;
773;SDS011;370;48.810;9.150;2023-01-29T01:03:26;2.78;;;1.40;;
773;SDS011;370;48.810;9.150;2023-01-29T01:06:02;6.75;;;2.83;;
773;SDS011;370;48.810;9.150;2023-01-29T01:08:29;2.25;;;1.15;;
773;SDS011;370;48.810;9.150;2023-01-29T01:11:10;2.10;;;1.67;;
773;SDS011;370;48.810;9.150;2023-01-29T01:13:37;6.72;;;1.55;;
773;SDS011;370;48.810;9.150;2023-01-29T01:16:07;2.53;;;1.45;;
773;SDS011;370;48.810;9.150;2023-01-29T01:18:35;13.20;;;3.00;;
773;SDS011;370;48.810;9.150;2023-01-29T01:21:04;0.80;;;0.70;;
773;SDS011;370;48.810;9.150;2023-01-29T01:23:31;3.33;;;2.58;;
773;SDS011;370;48.810;9.150;2023-01-29T01:25:58;2.20;;;1.00;;
773;SDS011;370;48.810;9.150;2023-01-29T01:28:25;1.05;;;0.90;;
773;SDS011;370;48.810;9.150;2023-01-29T01:30:52;3.55;;;2.15;;
773;SDS011;370;48.810;9.150;2023-01-29T01:33:19;1.52;;;1.42;;
773;SDS011;370;48.810;9.150;2023-01-29T01:35:45;1.55;;;1.17;;
773;SDS011;370;48.810;9.150;2023-01-29T01:38:13;2.13;;;1.33;;
773;SDS011;370;48.810;9.150;2023-01-29T01:40:43;2.95;;;1.52;;
773;SDS011;370;48.810;9.150;2023-01-29T01:43:10;2.13;;;1.15;;
773;SDS011;370;48.810;9.150;2023-01-29T01:45:37;1.00;;;0.98;;
773;SDS011;370;48.810;9.150;2023-01-29T01:48:05;1.85;;;1.20;;
773;SDS011;370;48.810;9.150;2023-01-29T01:50:37;5.45;;;1.95;;
773;SDS011;370;48.810;9.150;2023-01-29T01:53:08;1.30;;;1.20;;
773;SDS011;370;48.810;9.150;2023-01-29T01:55:40;2.20;;;1.58;;
773;SDS011;370;48.810;9.150;2023-01-29T01:58:14;1.60;;;1.50;;
773;SDS011;370;48.810;9.150;2023-01-29T02:00:44;3.60;;;1.70;;
773;SDS011;370;48.810;9.150;2023-01-29T02:03:11;2.75;;;1.90;;
773;SDS011;370;48.810;9.150;2023-01-29T02:05:56;1.60;;;1.50;;
773;SDS011;370;48.810;9.150;2023-01-29T02:08:44;4.68;;;2.25;;
773;SDS011;370;48.810;9.150;2023-01-29T02:11:36;3.55;;;1.50;;
773;SDS011;370;48.810;9.150;2023-01-29T02:14:03;1.58;;;1.05;;
773;SDS011;370;48.810;9.150;2023-01-29T02:16:32;1.45;;;1.25;;
773;SDS011;370;48.810;9.150;2023-01-29T02:18:59;1.27;;;0.93;;
773;SDS011;370;48.810;9.150;2023-01-29T02:21:35;0.90;;;0.80;;
773;SDS011;370;48.810;9.150;2023-01-29T02:24:32;1.60;;;1.50;;
773;SDS011;370;48.810;9.150;2023-01-29T02:27:23;1.00;;;0.93;;
773;SDS011;370;48.810;9.150;2023-01-29T02:30:00;1.17;;;1.08;;
773;SDS011;370;48.810;9.150;2023-01-29T02:32:33;3.83;;;1.42;;
773;SDS011;370;48.810;9.150;2023-01-29T02:35:08;1.65;;;1.20;;
773;SDS011;370;48.810;9.150;2023-01-29T02:37:56;1.08;;;1.02;;
773;SDS011;370;48.810;9.150;2023-01-29T02:40:30;2.70;;;1.67;;
773;SDS011;370;48.810;9.150;2023-01-29T02:43:06;2.30;;;2.00;;
773;SDS011;370;48.810;9.150;2023-01-29T02:45:41;1.48;;;1.00;;
773;SDS011;370;48.810;9.150;2023-01-29T02:48:13;2.65;;;1.50;;
773;SDS011;370;48.810;9.150;2023-01-29T02:50:46;2.10;;;1.55;;
773;SDS011;370;48.810;9.150;2023-01-29T02:53:19;3.40;;;0.90;;
773;SDS011;370;48.810;9.150;2023-01-29T02:55:52;3.30;;;1.85;;
773;SDS011;370;48.810;9.150;2023-01-29T02:58:24;2.00;;;1.48;;
773;SDS011;370;48.810;9.150;2023-01-29T03:00:58;1.55;;;1.45;;
773;SDS011;370;48.810;9.150;2023-01-29T03:03:29;3.75;;;2.60;;
773;SDS011;370;48.810;9.150;2023-01-29T03:06:01;2.45;;;1.00;;
773;SDS011;370;48.810;9.150;2023-01-29T03:08:34;0.95;;;0.80;;
773;SDS011;370;48.810;9.150;2023-01-29T03:11:10;1.88;;;1.60;;
773;SDS011;370;48.810;9.150;2023-01-29T03:13:39;6.10;;;1.67;;
773;SDS011;370;48.810;9.150;2023-01-29T03:16:12;1.42;;;1.30;;
773;SDS011;370;48.810;9.150;2023-01-29T03:18:45;5.82;;;1.70;;
773;SDS011;370;48.810;9.150;2023-01-29T03:21:17;1.58;;;1.30;;
773;SDS011;370;48.810;9.150;2023-01-29T03:24:04;2.85;;;1.88;;
773;SDS011;370;48.810;9.150;2023-01-29T03:26:51;1.15;;;1.10;;
773;SDS011;370;48.810;9.150;2023-01-29T03:29:37;1.02;;;0.80;;
773;SDS011;370;48.810;9.150;2023-01-29T03:32:26;4.22;;;1.55;;
773;SDS011;370;48.810;9.150;2023-01-29T03:34:56;2.13;;;1.10;;
773;SDS011;370;48.810;9.150;2023-01-29T03:37:26;2.40;;;2.03;;
773;SDS011;370;48.810;9.150;2023-01-29T03:39:58;4.68;;;2.60;;
773;SDS011;370;48.810;9.150;2023-01-29T03:42:26;5.95;;;1.77;;
773;SDS011;370;48.810;9.150;2023-01-29T03:44:59;3.70;;;1.73;;
773;SDS011;370;48.810;9.150;2023-01-29T03:47:38;3.00;;;1.77;;
773;SDS011;370;48.810;9.150;2023-01-29T03:50:11;1.52;;;1.30;;
773;SDS011;370;48.810;9.150;2023-01-29T03:52:50;2.85;;;1.90;;
773;SDS011;370;48.810;9.150;2023-01-29T03:55:23;1.67;;;1.58;;
773;SDS011;370;48.810;9.150;2023-01-29T03:58:03;2.05;;;0.93;;
773;SDS011;370;48.810;9.150;2023-01-29T04:00:36;3.03;;;1.35;;
773;SDS011;370;48.810;9.150;2023-01-29T04:03:11;1.48;;;1.38;;
773;SDS011;370;48.810;9.150;2023-01-29T04:05:44;6.25;;;1.23;;
773;SDS011;370;48.810;9.150;2023-01-29T04:08:15;1.20;;;1.17;;
773;SDS011;370;48.810;9.150;2023-01-29T04:10:51;1.67;;;1.02;;
773;SDS011;370;48.810;9.150;2023-01-29T04:13:21;0.80;;;0.70;;
773;SDS011;370;48.810;9.150;2023-01-29T04:15:51;2.47;;;1.10;;
773;SDS011;370;48.810;9.150;2023-01-29T04:18:24;1.25;;;1.25;;
773;SDS011;370;48.810;9.150;2023-01-29T04:20:51;1.40;;;1.20;;
773;SDS011;370;48.810;9.150;2023-01-29T04:23:22;2.75;;;1.23;;
773;SDS011;370;48.810;9.150;2023-01-29T04:25:52;1.65;;;1.17;;
773;SDS011;370;48.810;9.150;2023-01-29T04:28:33;5.97;;;1.48;;
773;SDS011;370;48.810;9.150;2023-01-29T04:31:15;4.07;;;1.95;;
773;SDS011;370;48.810;9.150;2023-01-29T04:33:47;1.85;;;1.50;;
773;SDS011;370;48.810;9.150;2023-01-29T04:36:26;1.13;;;1.05;;
773;SDS011;370;48.810;9.150;2023-01-29T04:39:01;6.45;;;1.83;;
773;SDS011;370;48.810;9.150;2023-01-29T04:41:36;2.40;;;1.02;;
773;SDS011;370;48.810;9.150;2023-01-29T04:44:15;2.70;;;1.02;;
773;SDS011;370;48.810;9.150;2023-01-29T04:46:46;3.40;;;1.63;;
773;SDS011;370;48.810;9.150;2023-01-29T04:49:21;3.22;;;1.80;;
773;SDS011;370;48.810;9.150;2023-01-29T04:51:59;1.00;;;0.95;;
773;SDS011;370;48.810;9.150;2023-01-29T04:54:35;2.30;;;1.92;;
773;SDS011;370;48.810;9.150;2023-01-29T04:57:15;2.65;;;1.42;;
773;SDS011;370;48.810;9.150;2023-01-29T04:59:47;1.60;;;0.90;;
773;SDS011;370;48.810;9.150;2023-01-29T05:02:21;2.80;;;1.50;;
773;SDS011;370;48.810;9.150;2023-01-29T05:04:53;2.70;;;1.65;;
773;SDS011;370;48.810;9.150;2023-01-29T05:07:21;2.72;;;1.48;;
773;SDS011;370;48.810;9.150;2023-01-29T05:09:51;5.35;;;1.92;;
773;SDS011;370;48.810;9.150;2023-01-29T05:12:18;1.65;;;0.90;;
773;SDS011;370;48.810;9.150;2023-01-29T05:14:45;5.35;;;2.60;;
773;SDS011;370;48.810;9.150;2023-01-29T05:17:14;5.75;;;1.25;;
773;SDS011;370;48.810;9.150;2023-01-29T05:19:43;2.60;;;1.90;;
773;SDS011;370;48.810;9.150;2023-01-29T05:22:12;1.73;;;1.63;;
773;SDS011;370;48.810;9.150;2023-01-29T05:24:42;2.25;;;1.65;;
773;SDS011;370;48.810;9.150;2023-01-29T05:27:10;2.05;;;1.35;;
773;SDS011;370;48.810;9.150;2023-01-29T05:30:00;1.17;;;1.08;;
773;SDS011;370;48.810;9.150;2023-01-29T05:32:28;3.22;;;1.10;;
773;SDS011;370;48.810;9.150;2023-01-29T05:34:55;4.20;;;1.73;;
773;SDS011;370;48.810;9.150;2023-01-29T05:37:23;1.50;;;1.00;;
773;SDS011;370;48.810;9.150;2023-01-29T05:39:49;1.70;;;1.33;;
773;SDS011;370;48.810;9.150;2023-01-29T05:42:16;1.88;;;1.67;;
773;SDS011;370;48.810;9.150;2023-01-29T05:44:43;1.25;;;1.15;;
773;SDS011;370;48.810;9.150;2023-01-29T05:47:09;2.65;;;2.00;;
773;SDS011;370;48.810;9.150;2023-01-29T05:49:36;4.10;;;1.95;;
773;SDS011;370;48.810;9.150;2023-01-29T05:52:03;2.83;;;1.60;;
773;SDS011;370;48.810;9.150;2023-01-29T05:54:31;1.13;;;1.02;;
773;SDS011;370;48.810;9.150;2023-01-29T05:56:58;2.72;;;1.50;;
773;SDS011;370;48.810;9.150;2023-01-29T05:59:25;1.45;;;1.08;;
773;SDS011;370;48.810;9.150;2023-01-29T06:01:51;3.42;;;1.48;;
773;SDS011;370;48.810;9.150;2023-01-29T06:04:18;4.07;;;1.27;;
773;SDS011;370;48.810;9.150;2023-01-29T06:06:45;3.88;;;1.52;;
773;SDS011;370;48.810;9.150;2023-01-29T06:09:11;1.67;;;1.50;;
773;SDS011;370;48.810;9.150;2023-01-29T06:11:40;1.52;;;1.20;;
773;SDS011;370;48.810;9.150;2023-01-29T06:14:06;5.95;;;1.70;;
773;SDS011;370;48.810;9.150;2023-01-29T06:16:33;1.67;;;1.25;;
773;SDS011;370;48.810;9.150;2023-01-29T06:19:00;0.95;;;0.85;;
773;SDS011;370;48.810;9.150;2023-01-29T06:21:27;2.75;;;1.63;;
773;SDS011;370;48.810;9.150;2023-01-29T06:23:53;9.25;;;1.40;;
773;SDS011;370;48.810;9.150;2023-01-29T06:26:21;49.50;;;2.30;;
773;SDS011;370;48.810;9.150;2023-01-29T06:28:49;1.80;;;1.02;;
773;SDS011;370;48.810;9.150;2023-01-29T06:31:16;3.90;;;1.92;;
773;SDS011;370;48.810;9.150;2023-01-29T06:33:43;1.60;;;0.75;;
773;SDS011;370;48.810;9.150;2023-01-29T06:36:10;1.17;;;1.08;;
773;SDS011;370;48.810;9.150;2023-01-29T06:38:37;3.22;;;1.65;;
773;SDS011;370;48.810;9.150;2023-01-29T06:41:07;0.70;;;0.60;;
773;SDS011;370;48.810;9.150;2023-01-29T06:43:35;2.65;;;1.65;;
773;SDS011;370;48.810;9.150;2023-01-29T06:46:05;1.38;;;1.30;;
773;SDS011;370;48.810;9.150;2023-01-29T06:48:33;2.22;;;1.42;;
773;SDS011;370;48.810;9.150;2023-01-29T06:51:01;0.90;;;0.90;;
773;SDS011;370;48.810;9.150;2023-01-29T06:53:28;1.25;;;1.08;;
773;SDS011;370;48.810;9.150;2023-01-29T06:55:55;2.28;;;1.35;;
773;SDS011;370;48.810;9.150;2023-01-29T06:58:22;1.30;;;1.15;;
773;SDS011;370;48.810;9.150;2023-01-29T07:00:49;2.10;;;1.30;;
773;SDS011;370;48.810;9.150;2023-01-29T07:03:17;1.38;;;1.00;;
773;SDS011;370;48.810;9.150;2023-01-29T07:05:48;1.17;;;1.08;;
773;SDS011;370;48.810;9.150;2023-01-29T07:08:15;1.40;;;1.33;;
773;SDS011;370;48.810;9.150;2023-01-29T07:10:42;1.35;;;1.27;;
773;SDS011;370;48.810;9.150;2023-01-29T07:13:09;0.93;;;0.82;;
773;SDS011;370;48.810;9.150;2023-01-29T07:15:36;3.70;;;1.85;;
773;SDS011;370;48.810;9.150;2023-01-29T07:18:03;1.02;;;0.98;;
773;SDS011;370;48.810;9.150;2023-01-29T07:20:37;1.65;;;1.60;;
773;SDS011;370;48.810;9.150;2023-01-29T07:23:05;3.15;;;1.27;;
773;SDS011;370;48.810;9.150;2023-01-29T07:25:32;3.80;;;2.33;;
773;SDS011;370;48.810;9.150;2023-01-29T07:27:59;3.15;;;1.42;;
773;SDS011;370;48.810;9.150;2023-01-29T07:30:26;3.47;;;1.55;;
773;SDS011;370;48.810;9.150;2023-01-29T07:32:53;6.18;;;2.22;;
773;SDS011;370;48.810;9.150;2023-01-29T07:35:20;5.47;;;2.65;;
773;SDS011;370;48.810;9.150;2023-01-29T07:37:49;4.78;;;1.65;;
773;SDS011;370;48.810;9.150;2023-01-29T07:40:15;5.07;;;2.03;;
773;SDS011;370;48.810;9.150;2023-01-29T07:42:42;1.63;;;1.25;;
773;SDS011;370;48.810;9.150;2023-01-29T07:45:10;1.63;;;1.45;;
773;SDS011;370;48.810;9.150;2023-01-29T07:47:37;1.30;;;1.20;;
773;SDS011;370;48.810;9.150;2023-01-29T07:50:04;2.20;;;1.92;;
773;SDS011;370;48.810;9.150;2023-01-29T07:52:32;2.10;;;1.00;;
773;SDS011;370;48.810;9.150;2023-01-29T07:55:00;4.75;;;2.55;;
773;SDS011;370;48.810;9.150;2023-01-29T07:57:27;0.70;;;0.70;;
773;SDS011;370;48.810;9.150;2023-01-29T07:59:54;3.17;;;1.73;;
773;SDS011;370;48.810;9.150;2023-01-29T08:02:21;1.40;;;1.05;;
773;SDS011;370;48.810;9.150;2023-01-29T08:04:48;1.95;;;1.58;;
773;SDS011;370;48.810;9.150;2023-01-29T08:07:17;5.70;;;3.70;;
773;SDS011;370;48.810;9.150;2023-01-29T08:09:46;4.68;;;1.90;;
773;SDS011;370;48.810;9.150;2023-01-29T08:12:14;4.25;;;2.45;;
773;SDS011;370;48.810;9.150;2023-01-29T08:14:41;7.40;;;2.05;;
773;SDS011;370;48.810;9.150;2023-01-29T08:17:09;3.67;;;1.83;;
773;SDS011;370;48.810;9.150;2023-01-29T08:19:36;3.60;;;1.73;;
773;SDS011;370;48.810;9.150;2023-01-29T08:22:04;4.93;;;2.88;;
773;SDS011;370;48.810;9.150;2023-01-29T08:24:31;4.85;;;2.45;;
773;SDS011;370;48.810;9.150;2023-01-29T08:26:58;2.35;;;1.20;;
773;SDS011;370;48.810;9.150;2023-01-29T08:29:27;2.35;;;1.63;;
773;SDS011;370;48.810;9.150;2023-01-29T08:31:55;6.40;;;1.67;;
773;SDS011;370;48.810;9.150;2023-01-29T08:34:22;1.17;;;1.15;;
773;SDS011;370;48.810;9.150;2023-01-29T08:36:49;6.05;;;2.30;;
773;SDS011;370;48.810;9.150;2023-01-29T08:39:17;9.23;;;2.63;;
773;SDS011;370;48.810;9.150;2023-01-29T08:41:44;4.80;;;2.75;;
773;SDS011;370;48.810;9.150;2023-01-29T08:44:11;3.75;;;1.45;;
773;SDS011;370;48.810;9.150;2023-01-29T08:46:40;3.35;;;1.38;;
773;SDS011;370;48.810;9.150;2023-01-29T08:49:07;4.68;;;1.88;;
773;SDS011;370;48.810;9.150;2023-01-29T08:51:37;4.13;;;1.85;;
773;SDS011;370;48.810;9.150;2023-01-29T08:54:05;4.20;;;1.90;;
773;SDS011;370;48.810;9.150;2023-01-29T08:56:32;2.53;;;1.15;;
773;SDS011;370;48.810;9.150;2023-01-29T08:58:58;2.53;;;1.77;;
773;SDS011;370;48.810;9.150;2023-01-29T09:01:26;15.32;;;3.25;;
773;SDS011;370;48.810;9.150;2023-01-29T09:03:54;3.70;;;1.42;;
773;SDS011;370;48.810;9.150;2023-01-29T09:06:21;5.15;;;1.63;;
773;SDS011;370;48.810;9.150;2023-01-29T09:08:47;4.40;;;2.13;;
773;SDS011;370;48.810;9.150;2023-01-29T09:11:14;9.05;;;3.03;;
773;SDS011;370;48.810;9.150;2023-01-29T09:13:42;9.65;;;3.50;;
773;SDS011;370;48.810;9.150;2023-01-29T09:16:08;5.32;;;2.97;;
773;SDS011;370;48.810;9.150;2023-01-29T09:18:37;4.55;;;2.10;;
773;SDS011;370;48.810;9.150;2023-01-29T09:21:05;3.42;;;1.98;;
773;SDS011;370;48.810;9.150;2023-01-29T09:23:32;2.63;;;2.00;;
773;SDS011;370;48.810;9.150;2023-01-29T09:25:59;3.08;;;2.35;;
773;SDS011;370;48.810;9.150;2023-01-29T09:28:26;15.95;;;3.00;;
773;SDS011;370;48.810;9.150;2023-01-29T09:30:53;6.70;;;2.53;;
773;SDS011;370;48.810;9.150;2023-01-29T09:33:21;4.45;;;2.17;;
773;SDS011;370;48.810;9.150;2023-01-29T09:35:48;4.43;;;2.25;;
773;SDS011;370;48.810;9.150;2023-01-29T09:38:17;2.08;;;1.50;;
773;SDS011;370;48.810;9.150;2023-01-29T09:40:47;3.67;;;1.83;;
773;SDS011;370;48.810;9.150;2023-01-29T09:43:21;4.53;;;2.47;;
773;SDS011;370;48.810;9.150;2023-01-29T09:45:53;6.30;;;2.35;;
773;SDS011;370;48.810;9.150;2023-01-29T09:48:26;6.25;;;2.80;;
773;SDS011;370;48.810;9.150;2023-01-29T09:50:55;6.28;;;3.17;;
773;SDS011;370;48.810;9.150;2023-01-29T09:53:28;2.78;;;1.75;;
773;SDS011;370;48.810;9.150;2023-01-29T09:56:01;8.88;;;3.55;;
773;SDS011;370;48.810;9.150;2023-01-29T09:58:31;9.77;;;3.05;;
773;SDS011;370;48.810;9.150;2023-01-29T10:01:07;7.85;;;3.10;;
773;SDS011;370;48.810;9.150;2023-01-29T10:06:47;6.85;;;2.70;;
773;SDS011;370;48.810;9.150;2023-01-29T10:09:34;9.48;;;3.40;;
773;SDS011;370;48.810;9.150;2023-01-29T10:12:28;5.75;;;3.00;;
773;SDS011;370;48.810;9.150;2023-01-29T10:15:12;2.90;;;2.15;;
773;SDS011;370;48.810;9.150;2023-01-29T10:17:58;4.70;;;2.20;;
773;SDS011;370;48.810;9.150;2023-01-29T10:20:40;8.02;;;3.10;;
773;SDS011;370;48.810;9.150;2023-01-29T10:23:20;5.65;;;3.55;;
773;SDS011;370;48.810;9.150;2023-01-29T10:25:57;7.45;;;3.85;;
773;SDS011;370;48.810;9.150;2023-01-29T10:28:24;5.50;;;3.42;;
773;SDS011;370;48.810;9.150;2023-01-29T10:30:58;5.03;;;2.80;;
773;SDS011;370;48.810;9.150;2023-01-29T10:33:29;5.03;;;2.58;;
773;SDS011;370;48.810;9.150;2023-01-29T10:35:59;3.97;;;2.92;;
773;SDS011;370;48.810;9.150;2023-01-29T10:38:34;5.45;;;3.33;;
773;SDS011;370;48.810;9.150;2023-01-29T10:44:15;4.10;;;2.65;;
773;SDS011;370;48.810;9.150;2023-01-29T10:46:54;8.55;;;4.32;;
773;SDS011;370;48.810;9.150;2023-01-29T10:49:36;8.80;;;3.42;;
773;SDS011;370;48.810;9.150;2023-01-29T10:52:20;6.78;;;3.28;;
773;SDS011;370;48.810;9.150;2023-01-29T10:55:01;4.53;;;2.55;;
773;SDS011;370;48.810;9.150;2023-01-29T10:57:41;6.70;;;3.40;;
773;SDS011;370;48.810;9.150;2023-01-29T11:00:18;3.90;;;2.85;;
773;SDS011;370;48.810;9.150;2023-01-29T11:02:48;5.20;;;3.25;;
773;SDS011;370;48.810;9.150;2023-01-29T11:05:22;4.85;;;3.08;;
773;SDS011;370;48.810;9.150;2023-01-29T11:07:59;9.88;;;4.53;;
773;SDS011;370;48.810;9.150;2023-01-29T11:10:29;4.53;;;2.53;;
773;SDS011;370;48.810;9.150;2023-01-29T11:13:03;6.70;;;4.03;;
773;SDS011;370;48.810;9.150;2023-01-29T11:15:31;5.68;;;3.08;;
773;SDS011;370;48.810;9.150;2023-01-29T11:18:00;5.90;;;3.15;;
773;SDS011;370;48.810;9.150;2023-01-29T11:20:29;5.85;;;3.08;;
773;SDS011;370;48.810;9.150;2023-01-29T11:23:00;7.28;;;4.05;;
773;SDS011;370;48.810;9.150;2023-01-29T11:25:27;6.25;;;2.97;;
773;SDS011;370;48.810;9.150;2023-01-29T11:27:57;6.18;;;3.78;;
773;SDS011;370;48.810;9.150;2023-01-29T11:30:27;9.45;;;2.97;;
773;SDS011;370;48.810;9.150;2023-01-29T11:32:59;8.55;;;3.50;;
773;SDS011;370;48.810;9.150;2023-01-29T11:35:33;8.80;;;3.10;;
773;SDS011;370;48.810;9.150;2023-01-29T11:38:17;7.20;;;2.70;;
773;SDS011;370;48.810;9.150;2023-01-29T11:40:46;7.47;;;2.45;;
773;SDS011;370;48.810;9.150;2023-01-29T11:43:18;3.85;;;2.60;;
773;SDS011;370;48.810;9.150;2023-01-29T11:45:49;7.72;;;3.42;;
773;SDS011;370;48.810;9.150;2023-01-29T11:48:19;6.63;;;3.10;;
773;SDS011;370;48.810;9.150;2023-01-29T11:50:51;5.30;;;2.75;;
773;SDS011;370;48.810;9.150;2023-01-29T11:53:21;4.43;;;2.67;;
773;SDS011;370;48.810;9.150;2023-01-29T11:55:53;5.65;;;3.20;;
773;SDS011;370;48.810;9.150;2023-01-29T11:58:23;6.90;;;2.83;;
773;SDS011;370;48.810;9.150;2023-01-29T12:00:57;5.32;;;3.30;;
773;SDS011;370;48.810;9.150;2023-01-29T12:03:28;7.55;;;3.03;;
773;SDS011;370;48.810;9.150;2023-01-29T12:06:02;7.00;;;2.75;;
773;SDS011;370;48.810;9.150;2023-01-29T12:08:36;6.70;;;3.30;;
773;SDS011;370;48.810;9.150;2023-01-29T12:11:08;10.82;;;3.20;;
773;SDS011;370;48.810;9.150;2023-01-29T12:13:37;9.25;;;3.50;;
773;SDS011;370;48.810;9.150;2023-01-29T12:19:04;15.55;;;3.60;;
773;SDS011;370;48.810;9.150;2023-01-29T12:21:39;6.30;;;3.80;;
773;SDS011;370;48.810;9.150;2023-01-29T12:24:22;6.32;;;3.65;;
773;SDS011;370;48.810;9.150;2023-01-29T12:26:58;10.48;;;4.38;;
773;SDS011;370;48.810;9.150;2023-01-29T12:29:32;9.82;;;4.13;;
773;SDS011;370;48.810;9.150;2023-01-29T12:32:13;8.60;;;3.88;;
773;SDS011;370;48.810;9.150;2023-01-29T12:34:49;6.47;;;4.30;;
773;SDS011;370;48.810;9.150;2023-01-29T12:37:20;6.40;;;3.78;;
773;SDS011;370;48.810;9.150;2023-01-29T12:39:52;10.05;;;4.15;;
773;SDS011;370;48.810;9.150;2023-01-29T12:42:20;7.95;;;4.13;;
773;SDS011;370;48.810;9.150;2023-01-29T12:44:49;9.15;;;4.72;;
773;SDS011;370;48.810;9.150;2023-01-29T12:47:21;8.43;;;3.92;;
773;SDS011;370;48.810;9.150;2023-01-29T12:49:54;10.13;;;4.43;;
773;SDS011;370;48.810;9.150;2023-01-29T12:52:25;8.85;;;4.68;;
773;SDS011;370;48.810;9.150;2023-01-29T12:55:01;9.60;;;4.70;;
773;SDS011;370;48.810;9.150;2023-01-29T12:57:33;8.03;;;4.37;;
773;SDS011;370;48.810;9.150;2023-01-29T13:00:05;7.43;;;4.10;;
773;SDS011;370;48.810;9.150;2023-01-29T13:02:42;9.32;;;4.40;;
773;SDS011;370;48.810;9.150;2023-01-29T13:05:16;6.78;;;3.97;;
773;SDS011;370;48.810;9.150;2023-01-29T13:07:48;9.30;;;4.63;;
773;SDS011;370;48.810;9.150;2023-01-29T13:10:19;8.18;;;4.60;;
773;SDS011;370;48.810;9.150;2023-01-29T13:12:53;10.60;;;4.88;;
773;SDS011;370;48.810;9.150;2023-01-29T13:15:27;5.88;;;3.47;;
773;SDS011;370;48.810;9.150;2023-01-29T13:18:01;6.32;;;3.80;;
773;SDS011;370;48.810;9.150;2023-01-29T13:20:43;10.88;;;3.80;;
773;SDS011;370;48.810;9.150;2023-01-29T13:23:16;6.93;;;3.80;;
773;SDS011;370;48.810;9.150;2023-01-29T13:25:48;7.93;;;4.18;;
773;SDS011;370;48.810;9.150;2023-01-29T13:28:17;5.78;;;3.35;;
773;SDS011;370;48.810;9.150;2023-01-29T13:30:45;7.35;;;4.07;;
773;SDS011;370;48.810;9.150;2023-01-29T13:33:17;8.43;;;3.42;;
773;SDS011;370;48.810;9.150;2023-01-29T13:35:48;8.40;;;3.78;;
773;SDS011;370;48.810;9.150;2023-01-29T13:38:26;11.50;;;4.15;;
773;SDS011;370;48.810;9.150;2023-01-29T13:40:57;8.15;;;4.30;;
773;SDS011;370;48.810;9.150;2023-01-29T13:43:29;6.80;;;3.20;;
773;SDS011;370;48.810;9.150;2023-01-29T13:46:05;12.32;;;4.93;;
773;SDS011;370;48.810;9.150;2023-01-29T13:48:39;7.75;;;3.40;;
773;SDS011;370;48.810;9.150;2023-01-29T13:51:09;8.60;;;4.60;;
773;SDS011;370;48.810;9.150;2023-01-29T13:53:41;8.30;;;4.10;;
773;SDS011;370;48.810;9.150;2023-01-29T13:59:21;9.13;;;3.97;;
773;SDS011;370;48.810;9.150;2023-01-29T14:02:17;10.75;;;4.43;;
773;SDS011;370;48.810;9.150;2023-01-29T14:04:48;6.28;;;3.95;;
773;SDS011;370;48.810;9.150;2023-01-29T14:10:12;12.13;;;4.00;;
773;SDS011;370;48.810;9.150;2023-01-29T14:12:44;8.88;;;4.07;;
773;SDS011;370;48.810;9.150;2023-01-29T14:15:23;7.03;;;3.28;;
773;SDS011;370;48.810;9.150;2023-01-29T14:20:58;13.77;;;3.63;;
773;SDS011;370;48.810;9.150;2023-01-29T14:23:29;7.40;;;3.63;;
773;SDS011;370;48.810;9.150;2023-01-29T14:26:04;3.00;;;2.70;;
773;SDS011;370;48.810;9.150;2023-01-29T14:28:50;8.52;;;3.15;;
773;SDS011;370;48.810;9.150;2023-01-29T14:31:26;14.88;;;3.47;;
773;SDS011;370;48.810;9.150;2023-01-29T14:34:02;6.22;;;3.83;;
773;SDS011;370;48.810;9.150;2023-01-29T14:36:38;5.45;;;3.03;;
773;SDS011;370;48.810;9.150;2023-01-29T14:39:06;8.23;;;3.35;;
773;SDS011;370;48.810;9.150;2023-01-29T14:41:53;5.97;;;3.42;;
773;SDS011;370;48.810;9.150;2023-01-29T14:47:17;8.68;;;3.47;;
773;SDS011;370;48.810;9.150;2023-01-29T14:49:51;7.50;;;3.40;;
773;SDS011;370;48.810;9.150;2023-01-29T14:52:21;4.53;;;2.60;;
773;SDS011;370;48.810;9.150;2023-01-29T14:54:56;4.97;;;3.72;;
773;SDS011;370;48.810;9.150;2023-01-29T14:57:27;7.90;;;2.45;;
773;SDS011;370;48.810;9.150;2023-01-29T14:59:56;5.85;;;2.65;;
773;SDS011;370;48.810;9.150;2023-01-29T15:02:26;5.22;;;2.85;;
773;SDS011;370;48.810;9.150;2023-01-29T15:04:59;6.70;;;2.65;;
773;SDS011;370;48.810;9.150;2023-01-29T15:07:31;6.57;;;2.42;;
773;SDS011;370;48.810;9.150;2023-01-29T15:10:03;7.35;;;3.70;;
773;SDS011;370;48.810;9.150;2023-01-29T15:12:40;6.10;;;3.60;;
773;SDS011;370;48.810;9.150;2023-01-29T15:15:14;6.18;;;2.78;;
773;SDS011;370;48.810;9.150;2023-01-29T15:17:46;5.47;;;2.92;;
773;SDS011;370;48.810;9.150;2023-01-29T15:20:27;8.15;;;3.33;;
773;SDS011;370;48.810;9.150;2023-01-29T15:22:57;6.47;;;3.10;;
773;SDS011;370;48.810;9.150;2023-01-29T15:25:33;6.60;;;2.88;;
773;SDS011;370;48.810;9.150;2023-01-29T15:28:02;5.57;;;2.67;;
773;SDS011;370;48.810;9.150;2023-01-29T15:30:34;8.02;;;3.28;;
773;SDS011;370;48.810;9.150;2023-01-29T15:33:02;3.05;;;2.70;;
773;SDS011;370;48.810;9.150;2023-01-29T15:35:35;13.00;;;4.18;;
773;SDS011;370;48.810;9.150;2023-01-29T15:38:05;10.70;;;4.32;;
773;SDS011;370;48.810;9.150;2023-01-29T15:40:40;8.48;;;3.33;;
773;SDS011;370;48.810;9.150;2023-01-29T15:43:16;6.35;;;3.28;;
773;SDS011;370;48.810;9.150;2023-01-29T15:45:46;6.07;;;2.00;;
773;SDS011;370;48.810;9.150;2023-01-29T15:48:15;5.65;;;3.33;;
773;SDS011;370;48.810;9.150;2023-01-29T15:50:44;14.20;;;2.83;;
773;SDS011;370;48.810;9.150;2023-01-29T15:53:14;3.60;;;2.20;;
773;SDS011;370;48.810;9.150;2023-01-29T15:55:44;4.88;;;2.25;;
773;SDS011;370;48.810;9.150;2023-01-29T15:58:13;7.03;;;3.97;;
773;SDS011;370;48.810;9.150;2023-01-29T16:00:46;4.82;;;2.05;;
773;SDS011;370;48.810;9.150;2023-01-29T16:03:14;7.93;;;3.00;;
773;SDS011;370;48.810;9.150;2023-01-29T16:05:41;6.40;;;2.60;;
773;SDS011;370;48.810;9.150;2023-01-29T16:08:09;7.95;;;2.70;;
773;SDS011;370;48.810;9.150;2023-01-29T16:10:40;2.88;;;1.80;;
773;SDS011;370;48.810;9.150;2023-01-29T16:13:10;2.75;;;1.90;;
773;SDS011;370;48.810;9.150;2023-01-29T16:15:52;6.45;;;2.08;;
773;SDS011;370;48.810;9.150;2023-01-29T16:18:22;2.30;;;1.58;;
773;SDS011;370;48.810;9.150;2023-01-29T16:20:51;5.32;;;2.55;;
773;SDS011;370;48.810;9.150;2023-01-29T16:23:28;8.10;;;2.40;;
773;SDS011;370;48.810;9.150;2023-01-29T16:26:02;6.70;;;3.10;;
773;SDS011;370;48.810;9.150;2023-01-29T16:28:33;1.80;;;1.67;;
773;SDS011;370;48.810;9.150;2023-01-29T16:31:06;4.50;;;2.45;;
773;SDS011;370;48.810;9.150;2023-01-29T16:33:33;3.45;;;2.40;;